sensor_id;sensor_type;location;lat;lon;timestamp;P1;durP1;ratioP1;P2;durP2;ratioP2
11709;SDS011;5911;51.036;6.972;2022-07-23T00:01:17;22.65;;;17.98;;
11709;SDS011;5911;51.036;6.972;2022-07-23T00:03:53;19.48;;;17.48;;
11709;SDS011;5911;51.036;6.972;2022-07-23T00:06:29;20.27;;;17.45;;
11709;SDS011;5911;51.036;6.972;2022-07-23T00:08:58;24.02;;;18.98;;
11709;SDS011;5911;51.036;6.972;2022-07-23T00:11:26;23.30;;;19.50;;
11709;SDS011;5911;51.036;6.972;2022-07-23T00:13:54;19.88;;;16.83;;
11709;SDS011;5911;51.036;6.972;2022-07-23T00:16:27;21.35;;;17.95;;
11709;SDS011;5911;51.036;6.972;2022-07-23T00:18:55;18.27;;;14.85;;
11709;SDS011;5911;51.036;6.972;2022-07-23T00:21:24;18.15;;;15.00;;
11709;SDS011;5911;51.036;6.972;2022-07-23T00:23:52;19.08;;;14.13;;
11709;SDS011;5911;51.036;6.972;2022-07-23T00:26:20;21.73;;;14.57;;
11709;SDS011;5911;51.036;6.972;2022-07-23T00:28:48;16.65;;;14.85;;
11709;SDS011;5911;51.036;6.972;2022-07-23T00:31:16;17.50;;;14.20;;
11709;SDS011;5911;51.036;6.972;2022-07-23T00:33:45;17.40;;;14.13;;
11709;SDS011;5911;51.036;6.972;2022-07-23T00:36:13;15.50;;;13.55;;
11709;SDS011;5911;51.036;6.972;2022-07-23T00:38:41;16.33;;;14.60;;
11709;SDS011;5911;51.036;6.972;2022-07-23T00:41:09;17.92;;;14.10;;
11709;SDS011;5911;51.036;6.972;2022-07-23T00:43:40;18.95;;;14.68;;
11709;SDS011;5911;51.036;6.972;2022-07-23T00:46:08;17.08;;;15.00;;
11709;SDS011;5911;51.036;6.972;2022-07-23T00:48:36;18.90;;;16.38;;
11709;SDS011;5911;51.036;6.972;2022-07-23T00:51:06;18.30;;;15.70;;
11709;SDS011;5911;51.036;6.972;2022-07-23T00:53:33;20.88;;;15.70;;
11709;SDS011;5911;51.036;6.972;2022-07-23T00:56:02;19.50;;;15.88;;
11709;SDS011;5911;51.036;6.972;2022-07-23T00:58:31;18.63;;;16.70;;
11709;SDS011;5911;51.036;6.972;2022-07-23T01:01:00;28.05;;;16.23;;
11709;SDS011;5911;51.036;6.972;2022-07-23T01:03:32;22.15;;;17.02;;
11709;SDS011;5911;51.036;6.972;2022-07-23T01:06:00;21.92;;;17.30;;
11709;SDS011;5911;51.036;6.972;2022-07-23T01:08:29;22.25;;;18.35;;
11709;SDS011;5911;51.036;6.972;2022-07-23T01:10:57;19.17;;;17.13;;
11709;SDS011;5911;51.036;6.972;2022-07-23T01:13:26;20.13;;;17.85;;
11709;SDS011;5911;51.036;6.972;2022-07-23T01:15:54;20.80;;;17.67;;
11709;SDS011;5911;51.036;6.972;2022-07-23T01:18:21;23.00;;;17.35;;
11709;SDS011;5911;51.036;6.972;2022-07-23T01:20:52;19.33;;;17.33;;
11709;SDS011;5911;51.036;6.972;2022-07-23T01:23:21;21.67;;;17.70;;
11709;SDS011;5911;51.036;6.972;2022-07-23T01:25:53;23.42;;;18.55;;
11709;SDS011;5911;51.036;6.972;2022-07-23T01:28:24;20.38;;;18.05;;
11709;SDS011;5911;51.036;6.972;2022-07-23T01:30:53;21.77;;;18.08;;
11709;SDS011;5911;51.036;6.972;2022-07-23T01:33:21;21.75;;;18.10;;
11709;SDS011;5911;51.036;6.972;2022-07-23T01:35:49;21.27;;;16.90;;
11709;SDS011;5911;51.036;6.972;2022-07-23T01:38:22;24.52;;;18.35;;
11709;SDS011;5911;51.036;6.972;2022-07-23T01:40:51;20.60;;;17.85;;
11709;SDS011;5911;51.036;6.972;2022-07-23T01:43:24;23.58;;;18.08;;
11709;SDS011;5911;51.036;6.972;2022-07-23T01:45:53;22.05;;;17.75;;
11709;SDS011;5911;51.036;6.972;2022-07-23T01:48:23;21.55;;;17.65;;
11709;SDS011;5911;51.036;6.972;2022-07-23T01:51:09;19.75;;;17.20;;
11709;SDS011;5911;51.036;6.972;2022-07-23T01:53:43;22.65;;;17.35;;
11709;SDS011;5911;51.036;6.972;2022-07-23T01:56:11;20.25;;;16.30;;
11709;SDS011;5911;51.036;6.972;2022-07-23T01:58:41;21.65;;;16.15;;
11709;SDS011;5911;51.036;6.972;2022-07-23T02:01:09;18.08;;;16.17;;
11709;SDS011;5911;51.036;6.972;2022-07-23T02:03:37;19.70;;;16.77;;
11709;SDS011;5911;51.036;6.972;2022-07-23T02:06:05;21.75;;;17.17;;
11709;SDS011;5911;51.036;6.972;2022-07-23T02:08:33;21.08;;;16.75;;
11709;SDS011;5911;51.036;6.972;2022-07-23T02:11:03;20.00;;;16.85;;
11709;SDS011;5911;51.036;6.972;2022-07-23T02:13:32;19.05;;;16.48;;
11709;SDS011;5911;51.036;6.972;2022-07-23T02:16:00;23.42;;;17.60;;
11709;SDS011;5911;51.036;6.972;2022-07-23T02:18:28;20.33;;;16.20;;
11709;SDS011;5911;51.036;6.972;2022-07-23T02:20:56;19.80;;;17.50;;
11709;SDS011;5911;51.036;6.972;2022-07-23T02:23:24;20.00;;;17.58;;
11709;SDS011;5911;51.036;6.972;2022-07-23T02:25:53;18.35;;;16.23;;
11709;SDS011;5911;51.036;6.972;2022-07-23T02:28:22;20.73;;;17.40;;
11709;SDS011;5911;51.036;6.972;2022-07-23T02:30:50;23.80;;;17.58;;
11709;SDS011;5911;51.036;6.972;2022-07-23T02:33:18;22.08;;;18.35;;
11709;SDS011;5911;51.036;6.972;2022-07-23T02:35:46;22.27;;;17.50;;
11709;SDS011;5911;51.036;6.972;2022-07-23T02:38:14;22.95;;;19.40;;
11709;SDS011;5911;51.036;6.972;2022-07-23T02:40:42;25.27;;;19.20;;
11709;SDS011;5911;51.036;6.972;2022-07-23T02:43:10;21.55;;;18.67;;
11709;SDS011;5911;51.036;6.972;2022-07-23T02:45:42;21.92;;;18.63;;
11709;SDS011;5911;51.036;6.972;2022-07-23T02:48:09;22.42;;;19.17;;
11709;SDS011;5911;51.036;6.972;2022-07-23T02:50:41;22.23;;;17.35;;
11709;SDS011;5911;51.036;6.972;2022-07-23T02:53:12;21.40;;;18.48;;
11709;SDS011;5911;51.036;6.972;2022-07-23T02:55:41;23.90;;;18.35;;
11709;SDS011;5911;51.036;6.972;2022-07-23T02:58:09;24.35;;;18.58;;
11709;SDS011;5911;51.036;6.972;2022-07-23T03:00:37;24.25;;;20.08;;
11709;SDS011;5911;51.036;6.972;2022-07-23T03:03:06;25.73;;;19.45;;
11709;SDS011;5911;51.036;6.972;2022-07-23T03:05:34;24.63;;;18.03;;
11709;SDS011;5911;51.036;6.972;2022-07-23T03:08:04;26.30;;;18.70;;
11709;SDS011;5911;51.036;6.972;2022-07-23T03:10:36;25.42;;;19.00;;
11709;SDS011;5911;51.036;6.972;2022-07-23T03:13:03;23.67;;;18.17;;
11709;SDS011;5911;51.036;6.972;2022-07-23T03:15:31;24.67;;;18.00;;
11709;SDS011;5911;51.036;6.972;2022-07-23T03:17:59;21.95;;;17.90;;
11709;SDS011;5911;51.036;6.972;2022-07-23T03:20:30;22.20;;;18.48;;
11709;SDS011;5911;51.036;6.972;2022-07-23T03:22:57;21.17;;;17.80;;
11709;SDS011;5911;51.036;6.972;2022-07-23T03:25:27;22.50;;;18.15;;
11709;SDS011;5911;51.036;6.972;2022-07-23T03:27:55;28.13;;;18.20;;
11709;SDS011;5911;51.036;6.972;2022-07-23T03:30:25;24.77;;;17.85;;
11709;SDS011;5911;51.036;6.972;2022-07-23T03:32:53;21.75;;;18.05;;
11709;SDS011;5911;51.036;6.972;2022-07-23T03:35:23;20.92;;;17.33;;
11709;SDS011;5911;51.036;6.972;2022-07-23T03:38:08;23.80;;;16.85;;
11709;SDS011;5911;51.036;6.972;2022-07-23T03:40:36;19.83;;;16.92;;
11709;SDS011;5911;51.036;6.972;2022-07-23T03:43:04;23.63;;;16.80;;
11709;SDS011;5911;51.036;6.972;2022-07-23T03:45:32;23.40;;;16.88;;
11709;SDS011;5911;51.036;6.972;2022-07-23T03:48:00;21.92;;;16.33;;
11709;SDS011;5911;51.036;6.972;2022-07-23T03:50:28;19.02;;;16.38;;
11709;SDS011;5911;51.036;6.972;2022-07-23T03:52:56;21.48;;;18.02;;
11709;SDS011;5911;51.036;6.972;2022-07-23T03:55:25;20.98;;;17.60;;
11709;SDS011;5911;51.036;6.972;2022-07-23T03:57:55;21.88;;;16.88;;
11709;SDS011;5911;51.036;6.972;2022-07-23T04:00:23;18.13;;;15.02;;
11709;SDS011;5911;51.036;6.972;2022-07-23T04:02:51;20.65;;;16.58;;
11709;SDS011;5911;51.036;6.972;2022-07-23T04:05:19;21.00;;;16.85;;
11709;SDS011;5911;51.036;6.972;2022-07-23T04:07:51;21.35;;;16.92;;
11709;SDS011;5911;51.036;6.972;2022-07-23T04:10:20;18.05;;;15.95;;
11709;SDS011;5911;51.036;6.972;2022-07-23T04:12:49;21.33;;;16.13;;
11709;SDS011;5911;51.036;6.972;2022-07-23T04:15:17;19.93;;;16.00;;
11709;SDS011;5911;51.036;6.972;2022-07-23T04:17:48;22.23;;;17.07;;
11709;SDS011;5911;51.036;6.972;2022-07-23T04:20:18;20.98;;;17.33;;
11709;SDS011;5911;51.036;6.972;2022-07-23T04:22:53;24.50;;;17.45;;
11709;SDS011;5911;51.036;6.972;2022-07-23T04:25:22;22.02;;;17.10;;
11709;SDS011;5911;51.036;6.972;2022-07-23T04:30:33;22.42;;;17.90;;
11709;SDS011;5911;51.036;6.972;2022-07-23T04:33:01;18.92;;;15.90;;
11709;SDS011;5911;51.036;6.972;2022-07-23T04:35:32;23.77;;;17.20;;
11709;SDS011;5911;51.036;6.972;2022-07-23T04:38:10;18.83;;;16.08;;
11709;SDS011;5911;51.036;6.972;2022-07-23T04:40:39;20.25;;;16.00;;
11709;SDS011;5911;51.036;6.972;2022-07-23T04:43:07;20.30;;;17.10;;
11709;SDS011;5911;51.036;6.972;2022-07-23T04:45:43;22.25;;;15.20;;
11709;SDS011;5911;51.036;6.972;2022-07-23T04:48:11;19.63;;;14.93;;
11709;SDS011;5911;51.036;6.972;2022-07-23T04:50:40;18.77;;;16.00;;
11709;SDS011;5911;51.036;6.972;2022-07-23T04:53:21;19.70;;;15.77;;
11709;SDS011;5911;51.036;6.972;2022-07-23T04:55:52;18.23;;;16.02;;
11709;SDS011;5911;51.036;6.972;2022-07-23T04:58:20;20.55;;;16.17;;
11709;SDS011;5911;51.036;6.972;2022-07-23T05:00:49;19.38;;;16.05;;
11709;SDS011;5911;51.036;6.972;2022-07-23T05:03:17;19.50;;;15.98;;
11709;SDS011;5911;51.036;6.972;2022-07-23T05:05:46;19.23;;;15.05;;
11709;SDS011;5911;51.036;6.972;2022-07-23T05:08:16;18.95;;;13.98;;
11709;SDS011;5911;51.036;6.972;2022-07-23T05:10:49;20.30;;;16.40;;
11709;SDS011;5911;51.036;6.972;2022-07-23T05:13:19;20.48;;;16.50;;
11709;SDS011;5911;51.036;6.972;2022-07-23T05:15:51;21.88;;;17.17;;
11709;SDS011;5911;51.036;6.972;2022-07-23T05:18:20;20.60;;;17.85;;
11709;SDS011;5911;51.036;6.972;2022-07-23T05:20:48;24.67;;;17.98;;
11709;SDS011;5911;51.036;6.972;2022-07-23T05:23:19;19.67;;;16.23;;
11709;SDS011;5911;51.036;6.972;2022-07-23T05:25:48;20.08;;;16.27;;
11709;SDS011;5911;51.036;6.972;2022-07-23T05:28:16;22.23;;;16.17;;
11709;SDS011;5911;51.036;6.972;2022-07-23T05:30:49;20.00;;;16.27;;
11709;SDS011;5911;51.036;6.972;2022-07-23T05:33:19;20.77;;;15.60;;
11709;SDS011;5911;51.036;6.972;2022-07-23T05:35:47;20.63;;;16.35;;
11709;SDS011;5911;51.036;6.972;2022-07-23T05:38:26;21.00;;;16.60;;
11709;SDS011;5911;51.036;6.972;2022-07-23T05:40:57;22.38;;;16.52;;
11709;SDS011;5911;51.036;6.972;2022-07-23T05:43:27;21.77;;;18.27;;
11709;SDS011;5911;51.036;6.972;2022-07-23T05:45:57;21.02;;;18.05;;
11709;SDS011;5911;51.036;6.972;2022-07-23T05:48:27;24.03;;;17.67;;
11709;SDS011;5911;51.036;6.972;2022-07-23T05:51:04;18.88;;;15.35;;
11709;SDS011;5911;51.036;6.972;2022-07-23T05:53:33;20.58;;;16.73;;
11709;SDS011;5911;51.036;6.972;2022-07-23T05:56:19;23.83;;;15.77;;
11709;SDS011;5911;51.036;6.972;2022-07-23T05:58:47;22.45;;;17.05;;
11709;SDS011;5911;51.036;6.972;2022-07-23T06:01:17;22.25;;;17.67;;
11709;SDS011;5911;51.036;6.972;2022-07-23T06:03:57;21.33;;;17.08;;
11709;SDS011;5911;51.036;6.972;2022-07-23T06:06:32;21.33;;;17.25;;
11709;SDS011;5911;51.036;6.972;2022-07-23T06:09:00;28.15;;;17.75;;
11709;SDS011;5911;51.036;6.972;2022-07-23T06:11:29;22.30;;;17.85;;
11709;SDS011;5911;51.036;6.972;2022-07-23T06:13:57;23.35;;;16.63;;
11709;SDS011;5911;51.036;6.972;2022-07-23T06:16:38;23.08;;;16.83;;
11709;SDS011;5911;51.036;6.972;2022-07-23T06:19:08;20.45;;;16.25;;
11709;SDS011;5911;51.036;6.972;2022-07-23T06:21:36;22.20;;;15.90;;
11709;SDS011;5911;51.036;6.972;2022-07-23T06:24:14;22.40;;;17.02;;
11709;SDS011;5911;51.036;6.972;2022-07-23T06:26:42;22.33;;;17.63;;
11709;SDS011;5911;51.036;6.972;2022-07-23T06:29:11;24.33;;;18.83;;
11709;SDS011;5911;51.036;6.972;2022-07-23T06:31:38;25.25;;;17.88;;
11709;SDS011;5911;51.036;6.972;2022-07-23T06:34:06;25.23;;;19.97;;
11709;SDS011;5911;51.036;6.972;2022-07-23T06:36:36;25.60;;;19.30;;
11709;SDS011;5911;51.036;6.972;2022-07-23T06:39:05;26.92;;;19.30;;
11709;SDS011;5911;51.036;6.972;2022-07-23T06:41:34;27.52;;;21.98;;
11709;SDS011;5911;51.036;6.972;2022-07-23T06:44:02;22.55;;;18.85;;
11709;SDS011;5911;51.036;6.972;2022-07-23T06:46:33;20.00;;;17.50;;
11709;SDS011;5911;51.036;6.972;2022-07-23T06:49:01;25.70;;;19.90;;
11709;SDS011;5911;51.036;6.972;2022-07-23T06:51:33;22.98;;;18.42;;
11709;SDS011;5911;51.036;6.972;2022-07-23T06:54:01;23.88;;;16.75;;
11709;SDS011;5911;51.036;6.972;2022-07-23T06:56:29;22.90;;;17.30;;
11709;SDS011;5911;51.036;6.972;2022-07-23T06:58:56;25.65;;;16.77;;
11709;SDS011;5911;51.036;6.972;2022-07-23T07:01:25;23.05;;;15.52;;
11709;SDS011;5911;51.036;6.972;2022-07-23T07:03:53;22.80;;;16.67;;
11709;SDS011;5911;51.036;6.972;2022-07-23T07:06:21;20.05;;;15.88;;
11709;SDS011;5911;51.036;6.972;2022-07-23T07:08:52;17.92;;;13.77;;
11709;SDS011;5911;51.036;6.972;2022-07-23T07:11:20;18.25;;;14.25;;
11709;SDS011;5911;51.036;6.972;2022-07-23T07:13:48;19.67;;;14.43;;
11709;SDS011;5911;51.036;6.972;2022-07-23T07:16:16;14.93;;;11.80;;
11709;SDS011;5911;51.036;6.972;2022-07-23T07:18:44;17.23;;;12.80;;
11709;SDS011;5911;51.036;6.972;2022-07-23T07:21:12;18.55;;;13.55;;
11709;SDS011;5911;51.036;6.972;2022-07-23T07:23:40;19.17;;;12.20;;
11709;SDS011;5911;51.036;6.972;2022-07-23T07:26:10;18.20;;;13.30;;
11709;SDS011;5911;51.036;6.972;2022-07-23T07:28:37;16.73;;;12.77;;
11709;SDS011;5911;51.036;6.972;2022-07-23T07:31:06;17.45;;;12.55;;
11709;SDS011;5911;51.036;6.972;2022-07-23T07:33:34;13.98;;;10.93;;
11709;SDS011;5911;51.036;6.972;2022-07-23T07:36:02;13.10;;;10.02;;
11709;SDS011;5911;51.036;6.972;2022-07-23T07:38:30;13.75;;;9.15;;
11709;SDS011;5911;51.036;6.972;2022-07-23T07:40:58;13.53;;;10.40;;
11709;SDS011;5911;51.036;6.972;2022-07-23T07:43:27;16.73;;;11.10;;
11709;SDS011;5911;51.036;6.972;2022-07-23T07:45:55;20.38;;;13.23;;
11709;SDS011;5911;51.036;6.972;2022-07-23T07:48:29;13.88;;;12.35;;
11709;SDS011;5911;51.036;6.972;2022-07-23T07:51:00;16.23;;;11.80;;
11709;SDS011;5911;51.036;6.972;2022-07-23T07:53:28;17.65;;;12.82;;
11709;SDS011;5911;51.036;6.972;2022-07-23T07:55:59;17.23;;;12.75;;
11709;SDS011;5911;51.036;6.972;2022-07-23T07:58:29;17.92;;;11.73;;
11709;SDS011;5911;51.036;6.972;2022-07-23T08:00:57;18.88;;;13.38;;
11709;SDS011;5911;51.036;6.972;2022-07-23T08:03:25;19.60;;;13.95;;
11709;SDS011;5911;51.036;6.972;2022-07-23T08:05:54;16.77;;;12.73;;
11709;SDS011;5911;51.036;6.972;2022-07-23T08:08:21;13.43;;;11.63;;
11709;SDS011;5911;51.036;6.972;2022-07-23T08:10:49;15.88;;;12.23;;
11709;SDS011;5911;51.036;6.972;2022-07-23T08:13:17;16.95;;;12.20;;
11709;SDS011;5911;51.036;6.972;2022-07-23T08:15:46;17.48;;;13.98;;
11709;SDS011;5911;51.036;6.972;2022-07-23T08:18:14;18.02;;;13.70;;
11709;SDS011;5911;51.036;6.972;2022-07-23T08:20:42;14.35;;;12.65;;
11709;SDS011;5911;51.036;6.972;2022-07-23T08:23:10;17.52;;;12.48;;
11709;SDS011;5911;51.036;6.972;2022-07-23T08:25:39;16.55;;;13.13;;
11709;SDS011;5911;51.036;6.972;2022-07-23T08:28:08;14.05;;;12.52;;
11709;SDS011;5911;51.036;6.972;2022-07-23T08:30:38;14.15;;;12.65;;
11709;SDS011;5911;51.036;6.972;2022-07-23T08:33:09;14.02;;;12.60;;
11709;SDS011;5911;51.036;6.972;2022-07-23T08:36:00;14.75;;;13.25;;
11709;SDS011;5911;51.036;6.972;2022-07-23T08:38:30;14.35;;;12.85;;
11709;SDS011;5911;51.036;6.972;2022-07-23T08:40:58;18.05;;;12.43;;
11709;SDS011;5911;51.036;6.972;2022-07-23T08:43:30;14.20;;;12.52;;
11709;SDS011;5911;51.036;6.972;2022-07-23T08:46:00;14.93;;;12.73;;
11709;SDS011;5911;51.036;6.972;2022-07-23T08:48:31;14.27;;;12.10;;
11709;SDS011;5911;51.036;6.972;2022-07-23T08:51:01;15.48;;;12.57;;
11709;SDS011;5911;51.036;6.972;2022-07-23T08:53:31;14.63;;;12.82;;
11709;SDS011;5911;51.036;6.972;2022-07-23T08:56:02;16.23;;;13.65;;
11709;SDS011;5911;51.036;6.972;2022-07-23T08:58:33;16.90;;;14.13;;
11709;SDS011;5911;51.036;6.972;2022-07-23T09:01:02;15.20;;;13.60;;
11709;SDS011;5911;51.036;6.972;2022-07-23T09:03:34;15.38;;;12.93;;
11709;SDS011;5911;51.036;6.972;2022-07-23T09:06:04;16.63;;;13.75;;
11709;SDS011;5911;51.036;6.972;2022-07-23T09:08:36;17.35;;;13.05;;
11709;SDS011;5911;51.036;6.972;2022-07-23T09:11:06;17.02;;;14.68;;
11709;SDS011;5911;51.036;6.972;2022-07-23T09:13:36;17.05;;;13.15;;
11709;SDS011;5911;51.036;6.972;2022-07-23T09:16:10;19.35;;;15.52;;
11709;SDS011;5911;51.036;6.972;2022-07-23T09:18:43;20.77;;;15.00;;
11709;SDS011;5911;51.036;6.972;2022-07-23T09:21:16;19.35;;;13.95;;
11709;SDS011;5911;51.036;6.972;2022-07-23T09:23:47;21.27;;;15.23;;
11709;SDS011;5911;51.036;6.972;2022-07-23T09:26:17;18.48;;;16.60;;
11709;SDS011;5911;51.036;6.972;2022-07-23T09:28:52;18.08;;;16.17;;
11709;SDS011;5911;51.036;6.972;2022-07-23T09:31:22;21.20;;;16.73;;
11709;SDS011;5911;51.036;6.972;2022-07-23T09:34:01;17.88;;;15.95;;
11709;SDS011;5911;51.036;6.972;2022-07-23T09:36:34;21.33;;;18.20;;
11709;SDS011;5911;51.036;6.972;2022-07-23T09:39:03;20.30;;;16.83;;
11709;SDS011;5911;51.036;6.972;2022-07-23T09:41:36;18.63;;;16.58;;
11709;SDS011;5911;51.036;6.972;2022-07-23T09:44:07;22.23;;;17.13;;
11709;SDS011;5911;51.036;6.972;2022-07-23T09:46:36;20.60;;;18.33;;
11709;SDS011;5911;51.036;6.972;2022-07-23T09:49:17;23.20;;;18.98;;
11709;SDS011;5911;51.036;6.972;2022-07-23T09:51:48;21.60;;;18.20;;
11709;SDS011;5911;51.036;6.972;2022-07-23T09:54:23;19.27;;;16.20;;
11709;SDS011;5911;51.036;6.972;2022-07-23T09:56:57;17.67;;;15.80;;
11709;SDS011;5911;51.036;6.972;2022-07-23T09:59:26;19.52;;;15.57;;
11709;SDS011;5911;51.036;6.972;2022-07-23T10:01:57;16.85;;;15.15;;
11709;SDS011;5911;51.036;6.972;2022-07-23T10:04:28;16.08;;;14.38;;
11709;SDS011;5911;51.036;6.972;2022-07-23T10:07:03;18.27;;;15.55;;
11709;SDS011;5911;51.036;6.972;2022-07-23T10:09:51;19.70;;;16.63;;
11709;SDS011;5911;51.036;6.972;2022-07-23T10:12:42;16.85;;;13.73;;
11709;SDS011;5911;51.036;6.972;2022-07-23T10:15:46;18.58;;;14.90;;
11709;SDS011;5911;51.036;6.972;2022-07-23T10:18:14;16.17;;;13.65;;
11709;SDS011;5911;51.036;6.972;2022-07-23T10:20:44;15.50;;;13.90;;
11709;SDS011;5911;51.036;6.972;2022-07-23T10:23:28;20.27;;;14.60;;
11709;SDS011;5911;51.036;6.972;2022-07-23T10:26:05;15.38;;;13.35;;
11709;SDS011;5911;51.036;6.972;2022-07-23T10:28:42;14.75;;;13.07;;
11709;SDS011;5911;51.036;6.972;2022-07-23T10:31:20;13.00;;;11.70;;
11709;SDS011;5911;51.036;6.972;2022-07-23T10:34:19;11.85;;;10.63;;
11709;SDS011;5911;51.036;6.972;2022-07-23T10:36:54;13.63;;;10.77;;
11709;SDS011;5911;51.036;6.972;2022-07-23T10:39:28;12.50;;;11.25;;
11709;SDS011;5911;51.036;6.972;2022-07-23T10:42:07;15.57;;;12.07;;
11709;SDS011;5911;51.036;6.972;2022-07-23T10:44:40;16.17;;;13.65;;
11709;SDS011;5911;51.036;6.972;2022-07-23T10:47:09;14.43;;;13.02;;
11709;SDS011;5911;51.036;6.972;2022-07-23T10:55:41;11.85;;;10.68;;
11709;SDS011;5911;51.036;6.972;2022-07-23T10:58:11;13.95;;;11.80;;
11709;SDS011;5911;51.036;6.972;2022-07-23T11:00:46;12.52;;;11.27;;
11709;SDS011;5911;51.036;6.972;2022-07-23T11:06:06;11.43;;;10.18;;
11709;SDS011;5911;51.036;6.972;2022-07-23T11:08:35;12.55;;;11.25;;
11709;SDS011;5911;51.036;6.972;2022-07-23T11:11:10;14.82;;;11.35;;
11709;SDS011;5911;51.036;6.972;2022-07-23T11:13:41;12.57;;;11.38;;
11709;SDS011;5911;51.036;6.972;2022-07-23T11:16:18;12.57;;;11.40;;
11709;SDS011;5911;51.036;6.972;2022-07-23T11:18:56;11.15;;;10.07;;
11709;SDS011;5911;51.036;6.972;2022-07-23T11:21:44;11.60;;;10.48;;
11709;SDS011;5911;51.036;6.972;2022-07-23T11:24:16;11.65;;;9.70;;
11709;SDS011;5911;51.036;6.972;2022-07-23T11:26:52;12.00;;;10.60;;
11709;SDS011;5911;51.036;6.972;2022-07-23T11:29:41;14.20;;;11.25;;
11709;SDS011;5911;51.036;6.972;2022-07-23T11:35:23;11.27;;;9.45;;
11709;SDS011;5911;51.036;6.972;2022-07-23T11:37:54;11.18;;;10.07;;
11709;SDS011;5911;51.036;6.972;2022-07-23T11:40:31;11.57;;;10.45;;
11709;SDS011;5911;51.036;6.972;2022-07-23T11:43:00;10.40;;;9.40;;
11709;SDS011;5911;51.036;6.972;2022-07-23T11:45:30;13.18;;;11.77;;
11709;SDS011;5911;51.036;6.972;2022-07-23T11:48:01;8.02;;;7.22;;
11709;SDS011;5911;51.036;6.972;2022-07-23T11:50:30;7.80;;;7.00;;
11709;SDS011;5911;51.036;6.972;2022-07-23T11:52:58;7.10;;;6.40;;
11709;SDS011;5911;51.036;6.972;2022-07-23T11:55:26;6.63;;;6.03;;
11709;SDS011;5911;51.036;6.972;2022-07-23T11:57:56;7.55;;;6.57;;
11709;SDS011;5911;51.036;6.972;2022-07-23T12:00:26;7.60;;;6.78;;
11709;SDS011;5911;51.036;6.972;2022-07-23T12:02:57;7.15;;;6.45;;
11709;SDS011;5911;51.036;6.972;2022-07-23T12:05:29;7.07;;;6.38;;
11709;SDS011;5911;51.036;6.972;2022-07-23T12:07:59;9.25;;;8.10;;
11709;SDS011;5911;51.036;6.972;2022-07-23T12:10:29;4.45;;;4.07;;
11709;SDS011;5911;51.036;6.972;2022-07-23T12:13:03;3.40;;;3.10;;
11709;SDS011;5911;51.036;6.972;2022-07-23T12:15:33;5.68;;;4.47;;
11709;SDS011;5911;51.036;6.972;2022-07-23T12:18:04;5.28;;;4.78;;
11709;SDS011;5911;51.036;6.972;2022-07-23T12:20:34;6.00;;;5.47;;
11709;SDS011;5911;51.036;6.972;2022-07-23T12:23:05;5.57;;;4.97;;
11709;SDS011;5911;51.036;6.972;2022-07-23T12:25:35;5.80;;;5.05;;
11709;SDS011;5911;51.036;6.972;2022-07-23T12:28:07;6.65;;;4.60;;
11709;SDS011;5911;51.036;6.972;2022-07-23T12:30:37;7.38;;;6.25;;
11709;SDS011;5911;51.036;6.972;2022-07-23T12:33:08;5.32;;;4.75;;
11709;SDS011;5911;51.036;6.972;2022-07-23T12:35:37;7.30;;;6.30;;
11709;SDS011;5911;51.036;6.972;2022-07-23T12:38:08;5.68;;;5.05;;
11709;SDS011;5911;51.036;6.972;2022-07-23T12:40:37;9.70;;;6.90;;
11709;SDS011;5911;51.036;6.972;2022-07-23T12:43:18;8.38;;;7.57;;
11709;SDS011;5911;51.036;6.972;2022-07-23T12:45:48;6.68;;;5.03;;
11709;SDS011;5911;51.036;6.972;2022-07-23T12:48:21;6.97;;;5.50;;
11709;SDS011;5911;51.036;6.972;2022-07-23T12:50:56;9.98;;;4.65;;
11709;SDS011;5911;51.036;6.972;2022-07-23T12:53:26;6.55;;;5.60;;
11709;SDS011;5911;51.036;6.972;2022-07-23T12:56:03;6.55;;;5.85;;
11709;SDS011;5911;51.036;6.972;2022-07-23T12:58:43;6.82;;;6.15;;
11709;SDS011;5911;51.036;6.972;2022-07-23T13:01:26;6.15;;;5.65;;
11709;SDS011;5911;51.036;6.972;2022-07-23T13:03:56;7.70;;;5.30;;
11709;SDS011;5911;51.036;6.972;2022-07-23T13:06:27;6.78;;;4.97;;
11709;SDS011;5911;51.036;6.972;2022-07-23T13:08:57;6.07;;;5.40;;
11709;SDS011;5911;51.036;6.972;2022-07-23T13:11:27;6.95;;;6.35;;
11709;SDS011;5911;51.036;6.972;2022-07-23T13:13:57;6.80;;;6.13;;
11709;SDS011;5911;51.036;6.972;2022-07-23T13:16:27;9.27;;;7.13;;
11709;SDS011;5911;51.036;6.972;2022-07-23T13:18:56;4.88;;;4.47;;
11709;SDS011;5911;51.036;6.972;2022-07-23T13:21:24;4.95;;;3.88;;
11709;SDS011;5911;51.036;6.972;2022-07-23T13:23:52;3.72;;;3.38;;
11709;SDS011;5911;51.036;6.972;2022-07-23T13:26:20;4.45;;;4.00;;
11709;SDS011;5911;51.036;6.972;2022-07-23T13:28:49;4.13;;;3.70;;
11709;SDS011;5911;51.036;6.972;2022-07-23T13:31:19;9.40;;;6.30;;
11709;SDS011;5911;51.036;6.972;2022-07-23T13:33:50;4.57;;;3.88;;
11709;SDS011;5911;51.036;6.972;2022-07-23T13:36:18;6.22;;;5.50;;
11709;SDS011;5911;51.036;6.972;2022-07-23T13:38:48;4.45;;;3.65;;
11709;SDS011;5911;51.036;6.972;2022-07-23T13:41:16;4.00;;;3.55;;
11709;SDS011;5911;51.036;6.972;2022-07-23T13:43:44;6.00;;;3.50;;
11709;SDS011;5911;51.036;6.972;2022-07-23T13:46:34;3.95;;;3.55;;
11709;SDS011;5911;51.036;6.972;2022-07-23T13:49:02;4.88;;;3.05;;
11709;SDS011;5911;51.036;6.972;2022-07-23T13:51:34;5.85;;;3.10;;
11709;SDS011;5911;51.036;6.972;2022-07-23T13:54:02;4.75;;;3.58;;
11709;SDS011;5911;51.036;6.972;2022-07-23T13:56:34;5.47;;;3.13;;
11709;SDS011;5911;51.036;6.972;2022-07-23T13:59:02;4.55;;;3.88;;
11709;SDS011;5911;51.036;6.972;2022-07-23T14:01:33;3.78;;;2.95;;
11709;SDS011;5911;51.036;6.972;2022-07-23T14:04:21;7.30;;;3.95;;
11709;SDS011;5911;51.036;6.972;2022-07-23T14:06:49;6.95;;;4.57;;
11709;SDS011;5911;51.036;6.972;2022-07-23T14:09:20;4.53;;;3.38;;
11709;SDS011;5911;51.036;6.972;2022-07-23T14:11:48;6.10;;;5.38;;
11709;SDS011;5911;51.036;6.972;2022-07-23T14:14:17;3.40;;;3.10;;
11709;SDS011;5911;51.036;6.972;2022-07-23T14:16:47;4.05;;;3.25;;
11709;SDS011;5911;51.036;6.972;2022-07-23T14:19:15;6.07;;;3.25;;
11709;SDS011;5911;51.036;6.972;2022-07-23T14:21:44;3.60;;;2.67;;
11709;SDS011;5911;51.036;6.972;2022-07-23T14:24:15;3.90;;;2.90;;
11709;SDS011;5911;51.036;6.972;2022-07-23T14:26:44;3.72;;;3.42;;
11709;SDS011;5911;51.036;6.972;2022-07-23T14:29:12;3.70;;;3.35;;
11709;SDS011;5911;51.036;6.972;2022-07-23T14:31:40;3.75;;;2.88;;
11709;SDS011;5911;51.036;6.972;2022-07-23T14:34:10;3.50;;;2.90;;
11709;SDS011;5911;51.036;6.972;2022-07-23T14:36:39;4.90;;;2.70;;
11709;SDS011;5911;51.036;6.972;2022-07-23T14:39:07;4.25;;;2.88;;
11709;SDS011;5911;51.036;6.972;2022-07-23T14:41:36;3.92;;;2.95;;
11709;SDS011;5911;51.036;6.972;2022-07-23T14:44:04;4.28;;;3.78;;
11709;SDS011;5911;51.036;6.972;2022-07-23T14:46:32;4.57;;;3.20;;
11709;SDS011;5911;51.036;6.972;2022-07-23T14:49:00;3.33;;;2.97;;
11709;SDS011;5911;51.036;6.972;2022-07-23T14:51:30;4.75;;;2.97;;
11709;SDS011;5911;51.036;6.972;2022-07-23T14:53:58;6.63;;;3.10;;
11709;SDS011;5911;51.036;6.972;2022-07-23T14:56:26;4.00;;;2.55;;
11709;SDS011;5911;51.036;6.972;2022-07-23T14:58:54;3.38;;;2.95;;
11709;SDS011;5911;51.036;6.972;2022-07-23T15:01:23;9.15;;;8.00;;
11709;SDS011;5911;51.036;6.972;2022-07-23T15:03:53;11.63;;;8.95;;
11709;SDS011;5911;51.036;6.972;2022-07-23T15:06:25;4.50;;;3.72;;
11709;SDS011;5911;51.036;6.972;2022-07-23T15:08:54;4.32;;;2.85;;
11709;SDS011;5911;51.036;6.972;2022-07-23T15:11:22;5.45;;;2.67;;
11709;SDS011;5911;51.036;6.972;2022-07-23T15:13:50;2.75;;;2.40;;
11709;SDS011;5911;51.036;6.972;2022-07-23T15:16:18;2.90;;;2.28;;